createdAt,value
2018-07-27T00:02:16.751Z,48.50
2018-07-27T00:04:44.920Z,48.80
2018-07-27T00:07:13.121Z,49.00
2018-07-27T00:09:41.304Z,49.20
2018-07-27T00:12:09.476Z,49.30
2018-07-27T00:14:37.652Z,49.40
2018-07-27T00:19:33.892Z,49.60
2018-07-27T00:22:02.076Z,49.60
2018-07-27T00:24:31.031Z,49.70
2018-07-27T00:26:59.220Z,49.80
2018-07-27T00:29:27.553Z,49.80
2018-07-27T00:31:55.757Z,49.70
2018-07-27T00:34:24.071Z,49.50
2018-07-27T00:36:52.283Z,49.30
2018-07-27T00:39:20.468Z,49.10
2018-07-27T00:41:48.672Z,49.00
2018-07-27T00:44:16.844Z,49.00
2018-07-27T00:46:45.256Z,49.10
2018-07-27T00:49:13.433Z,49.10
2018-07-27T00:51:41.650Z,49.10
2018-07-27T00:54:09.907Z,48.90
2018-07-27T00:56:38.061Z,48.70
2018-07-27T00:59:06.232Z,48.70
2018-07-27T01:01:34.401Z,49.00
2018-07-27T01:06:30.639Z,48.70
2018-07-27T01:08:58.882Z,48.90
2018-07-27T01:11:27.149Z,48.90
2018-07-27T01:13:55.421Z,49.00
2018-07-27T01:16:23.644Z,49.00
2018-07-27T01:18:51.886Z,49.00
2018-07-27T01:21:20.132Z,48.90
2018-07-27T01:23:48.364Z,48.80
2018-07-27T01:26:16.601Z,48.60
2018-07-27T01:28:44.860Z,48.40
2018-07-27T01:31:13.071Z,48.30
2018-07-27T01:33:41.324Z,48.00
2018-07-27T01:36:09.541Z,47.80
2018-07-27T01:38:37.853Z,47.60
2018-07-27T01:41:06.096Z,47.40
2018-07-27T01:43:34.303Z,47.30
2018-07-27T01:46:02.549Z,47.20
2018-07-27T01:48:30.788Z,47.10
2018-07-27T01:50:59.068Z,47.20
2018-07-27T01:53:27.332Z,47.50
2018-07-27T01:55:55.588Z,47.80
2018-07-27T01:58:23.924Z,48.20
2018-07-27T02:00:52.156Z,48.40
2018-07-27T02:03:20.428Z,48.80
2018-07-27T02:05:48.669Z,49.00
2018-07-27T02:08:16.908Z,49.10
2018-07-27T02:10:45.144Z,49.30
2018-07-27T02:13:13.367Z,49.60
2018-07-27T02:15:41.632Z,49.60
2018-07-27T02:18:09.840Z,49.20
2018-07-27T02:20:38.270Z,49.80
2018-07-27T02:23:06.453Z,49.70
2018-07-27T02:25:34.648Z,49.90
2018-07-27T02:30:30.808Z,49.90
2018-07-27T02:32:58.985Z,49.90
2018-07-27T02:35:27.143Z,49.80
2018-07-27T02:37:55.354Z,49.80
2018-07-27T02:40:23.801Z,49.80
2018-07-27T02:42:51.956Z,49.90
2018-07-27T02:45:20.128Z,49.80
2018-07-27T02:47:49.680Z,49.80
2018-07-27T02:50:18.741Z,50.40
2018-07-27T02:52:48.945Z,49.70
2018-07-27T02:55:17.342Z,49.90
2018-07-27T02:57:45.636Z,50.00
2018-07-27T03:00:13.896Z,50.00
2018-07-27T03:02:42.073Z,50.30
2018-07-27T03:05:10.249Z,50.40
2018-07-27T03:07:38.485Z,50.40
2018-07-27T03:10:07.033Z,50.60
2018-07-27T03:12:35.216Z,50.60
2018-07-27T03:15:03.432Z,50.50
2018-07-27T03:17:31.604Z,50.60
2018-07-27T03:19:59.958Z,51.10
2018-07-27T03:22:28.124Z,50.60
2018-07-27T03:24:56.289Z,50.70
2018-07-27T03:27:24.477Z,50.70
2018-07-27T03:29:52.635Z,50.80
2018-07-27T03:32:20.808Z,50.80
2018-07-27T03:34:48.964Z,50.90
2018-07-27T03:37:17.162Z,51.00
2018-07-27T03:39:45.311Z,51.00
2018-07-27T03:42:13.541Z,51.10
2018-07-27T03:44:41.704Z,51.20
2018-07-27T03:47:09.865Z,51.30
2018-07-27T03:49:38.042Z,51.40
2018-07-27T03:52:06.330Z,51.40
2018-07-27T03:54:34.528Z,51.50
2018-07-27T03:57:02.909Z,51.60
2018-07-27T03:59:31.081Z,51.70
2018-07-27T04:01:59.236Z,51.80
2018-07-27T04:04:27.413Z,51.90
2018-07-27T04:06:55.599Z,52.00
2018-07-27T04:09:23.785Z,52.10
2018-07-27T04:14:19.892Z,52.10
2018-07-27T04:16:48.053Z,52.10
2018-07-27T04:19:16.233Z,52.20
2018-07-27T04:21:44.386Z,52.20
2018-07-27T04:24:12.568Z,52.10
2018-07-27T04:26:40.724Z,52.10
2018-07-27T04:29:08.902Z,52.20
2018-07-27T04:31:37.064Z,52.20
2018-07-27T04:34:05.377Z,52.30
2018-07-27T04:36:33.541Z,52.40
2018-07-27T04:39:01.965Z,52.40
2018-07-27T04:41:30.297Z,52.40
2018-07-27T04:43:58.487Z,52.50
2018-07-27T04:46:26.672Z,52.60
2018-07-27T04:48:54.900Z,52.60
2018-07-27T04:51:23.084Z,52.60
2018-07-27T04:53:51.397Z,52.60
2018-07-27T04:56:19.587Z,52.60
2018-07-27T04:58:47.768Z,52.60
2018-07-27T05:01:15.943Z,52.50
2018-07-27T05:03:44.153Z,52.50
2018-07-27T05:06:12.341Z,52.50
2018-07-27T05:08:45.805Z,52.50
2018-07-27T05:11:14.459Z,52.50
2018-07-27T05:13:42.616Z,52.50
2018-07-27T05:16:10.812Z,52.70
2018-07-27T05:18:38.994Z,52.70
2018-07-27T05:23:35.185Z,52.80
2018-07-27T05:26:03.375Z,52.70
2018-07-27T05:28:31.558Z,52.70
2018-07-27T05:30:59.808Z,52.80
2018-07-27T05:33:28.391Z,52.80
2018-07-27T05:35:56.584Z,52.80
2018-07-27T05:38:24.902Z,52.70
2018-07-27T05:40:53.080Z,52.60
2018-07-27T05:43:22.443Z,52.50
2018-07-27T05:45:50.632Z,52.30
2018-07-27T05:48:18.868Z,52.10
2018-07-27T05:50:47.052Z,51.90
2018-07-27T05:53:15.220Z,51.80
2018-07-27T05:55:43.397Z,51.80
2018-07-27T05:58:11.600Z,51.70
2018-07-27T06:00:39.797Z,51.60
2018-07-27T06:03:08.033Z,51.40
2018-07-27T06:05:36.262Z,51.40
2018-07-27T06:08:04.481Z,51.30
2018-07-27T06:10:32.668Z,51.10
2018-07-27T06:13:00.869Z,51.00
2018-07-27T06:15:29.082Z,51.00
2018-07-27T06:17:57.323Z,50.90
2018-07-27T06:20:25.469Z,50.80
2018-07-27T06:22:53.683Z,50.80
2018-07-27T06:25:21.881Z,50.60
2018-07-27T06:27:50.196Z,50.60
2018-07-27T06:30:18.380Z,50.40
2018-07-27T06:32:46.572Z,50.40
2018-07-27T06:35:14.927Z,50.30
2018-07-27T06:37:43.141Z,50.20
2018-07-27T06:40:11.414Z,50.10
2018-07-27T06:42:39.733Z,50.20
2018-07-27T06:45:07.947Z,50.10
2018-07-27T06:47:36.311Z,50.10
2018-07-27T06:52:32.774Z,49.90
2018-07-27T06:55:00.942Z,50.00
2018-07-27T06:57:29.169Z,49.80
2018-07-27T06:59:57.396Z,49.80
2018-07-27T07:02:25.780Z,49.80
2018-07-27T07:04:55.304Z,49.80
2018-07-27T07:07:23.536Z,49.70
2018-07-27T07:09:51.959Z,49.70
2018-07-27T07:12:20.458Z,49.60
2018-07-27T07:14:48.708Z,49.60
2018-07-27T07:17:16.887Z,49.60
2018-07-27T07:19:45.284Z,49.50
2018-07-27T07:22:13.571Z,49.60
2018-07-27T07:24:41.815Z,49.60
2018-07-27T07:27:09.997Z,49.60
2018-07-27T07:29:38.172Z,49.70
2018-07-27T07:32:06.436Z,50.30
2018-07-27T07:34:34.634Z,49.70
2018-07-27T07:37:02.842Z,49.70
2018-07-27T07:39:31.057Z,49.60
2018-07-27T07:41:59.437Z,49.70
2018-07-27T07:44:27.843Z,49.70
2018-07-27T07:46:56.038Z,49.70
2018-07-27T07:49:24.413Z,49.80
2018-07-27T07:51:52.556Z,49.70
2018-07-27T07:54:20.740Z,49.70
2018-07-27T07:56:48.914Z,49.70
2018-07-27T07:59:17.096Z,49.70
2018-07-27T08:01:45.261Z,49.70
2018-07-27T08:04:13.493Z,49.70
2018-07-27T08:06:41.638Z,49.60
2018-07-27T08:09:10.041Z,49.60
2018-07-27T08:11:38.245Z,49.60
2018-07-27T08:14:06.486Z,49.50
2018-07-27T08:19:02.637Z,49.60
2018-07-27T08:23:58.860Z,49.70
2018-07-27T08:26:38.649Z,49.70
2018-07-27T08:29:07.876Z,49.70
2018-07-27T08:31:36.070Z,49.60
2018-07-27T08:34:04.516Z,49.50
2018-07-27T08:36:33.700Z,49.50
2018-07-27T08:39:02.992Z,49.20
2018-07-27T08:41:31.164Z,49.10
2018-07-27T08:43:59.366Z,48.90
2018-07-27T08:46:27.936Z,48.80
2018-07-27T08:48:57.009Z,48.70
2018-07-27T08:51:25.405Z,48.50
2018-07-27T08:53:54.397Z,48.30
2018-07-27T08:56:22.759Z,48.20
2018-07-27T08:58:51.037Z,48.00
2018-07-27T09:01:19.232Z,47.90
2018-07-27T09:03:47.809Z,47.70
2018-07-27T09:06:16.481Z,47.70
2018-07-27T09:08:44.655Z,47.40
2018-07-27T09:11:12.956Z,47.00
2018-07-27T09:13:41.191Z,46.80
2018-07-27T09:16:09.732Z,46.60
2018-07-27T09:18:38.152Z,46.20
2018-07-27T09:21:06.404Z,46.10
2018-07-27T09:23:34.908Z,46.00
2018-07-27T09:26:03.092Z,45.90
2018-07-27T09:28:31.254Z,45.70
2018-07-27T09:30:59.447Z,45.60
2018-07-27T09:33:27.661Z,45.60
2018-07-27T09:35:55.834Z,45.50
2018-07-27T09:38:23.993Z,45.60
2018-07-27T09:40:52.160Z,45.60
2018-07-27T09:43:20.352Z,45.30
2018-07-27T09:45:48.574Z,45.20
2018-07-27T09:48:16.766Z,45.00
2018-07-27T09:50:45.548Z,44.80
2018-07-27T09:53:14.332Z,44.70
2018-07-27T09:55:42.848Z,44.60
2018-07-27T09:58:11.304Z,44.50
2018-07-27T10:00:45.057Z,44.60
2018-07-27T10:03:13.256Z,44.40
2018-07-27T10:05:41.485Z,44.20
2018-07-27T10:08:09.724Z,44.10
2018-07-27T10:10:38.260Z,44.00
2018-07-27T10:13:06.628Z,43.90
2018-07-27T10:15:34.841Z,43.90
2018-07-27T10:18:03.236Z,43.80
2018-07-27T10:22:59.652Z,43.40
2018-07-27T10:25:27.840Z,43.20
2018-07-27T10:27:56.035Z,43.00
2018-07-27T10:30:24.205Z,42.90
2018-07-27T10:32:52.413Z,42.80
2018-07-27T10:35:20.580Z,42.80
2018-07-27T10:37:48.744Z,42.50
2018-07-27T10:40:16.988Z,42.30
2018-07-27T10:42:45.161Z,42.10
2018-07-27T10:45:13.335Z,42.00
2018-07-27T10:47:41.525Z,41.70
2018-07-27T10:50:09.775Z,41.60
2018-07-27T10:52:37.936Z,41.40
2018-07-27T10:55:06.124Z,41.30
2018-07-27T10:57:34.277Z,41.20
2018-07-27T11:00:02.494Z,41.10
2018-07-27T11:02:30.753Z,40.80
2018-07-27T11:04:58.871Z,40.50
2018-07-27T11:07:27.050Z,40.40
2018-07-27T11:09:55.695Z,40.30
2018-07-27T11:12:23.750Z,40.00
2018-07-27T11:14:51.944Z,39.60
2018-07-27T11:19:48.320Z,38.50
2018-07-27T11:22:16.549Z,38.30
2018-07-27T11:24:44.700Z,38.10
2018-07-27T11:27:12.880Z,37.90
2018-07-27T11:29:41.073Z,37.90
2018-07-27T11:32:09.241Z,37.90
2018-07-27T11:34:37.436Z,37.70
2018-07-27T11:37:05.796Z,37.50
2018-07-27T11:39:33.993Z,38.30
2018-07-27T11:42:02.164Z,39.30
2018-07-27T11:44:30.368Z,39.20
2018-07-27T11:46:58.542Z,39.20
2018-07-27T11:49:27.094Z,38.10
2018-07-27T11:51:55.471Z,37.90
2018-07-27T11:54:23.612Z,37.80
2018-07-27T11:56:51.948Z,37.30
2018-07-27T11:59:20.300Z,37.10
2018-07-27T12:01:48.538Z,36.80
2018-07-27T12:04:17.203Z,36.50
2018-07-27T12:06:46.166Z,36.40
2018-07-27T12:09:15.449Z,36.40
2018-07-27T12:11:43.687Z,36.60
2018-07-27T12:14:12.031Z,36.60
2018-07-27T12:16:40.034Z,36.40
2018-07-27T12:19:08.258Z,36.30
2018-07-27T12:21:36.664Z,36.20
2018-07-27T12:24:04.625Z,36.10
2018-07-27T12:26:32.788Z,36.00
2018-07-27T12:29:00.981Z,35.90
2018-07-27T12:31:29.173Z,35.70
2018-07-27T12:33:57.360Z,35.50
2018-07-27T12:36:25.546Z,35.50
2018-07-27T12:38:53.745Z,35.50
2018-07-27T12:41:21.937Z,35.40
2018-07-27T12:43:50.085Z,35.30
2018-07-27T12:46:18.252Z,35.10
2018-07-27T12:48:46.421Z,34.80
2018-07-27T12:51:14.680Z,34.50
2018-07-27T12:53:42.858Z,34.30
2018-07-27T12:56:11.020Z,34.10
2018-07-27T12:58:39.260Z,34.00
2018-07-27T13:01:08.382Z,33.90
2018-07-27T13:03:36.556Z,33.70
2018-07-27T13:06:04.729Z,33.50
2018-07-27T13:08:33.077Z,33.20
2018-07-27T13:11:01.245Z,32.90
2018-07-27T13:13:29.411Z,32.60
2018-07-27T13:15:57.946Z,32.40
2018-07-27T13:18:26.321Z,32.10
2018-07-27T13:20:56.538Z,32.10
2018-07-27T13:23:25.384Z,32.10
2018-07-27T13:28:36.381Z,32.20
2018-07-27T13:31:04.527Z,32.20
2018-07-27T13:33:32.741Z,32.10
2018-07-27T13:38:29.904Z,32.00
2018-07-27T13:40:58.365Z,32.00
2018-07-27T13:43:26.592Z,31.90
2018-07-27T13:45:54.945Z,32.40
2018-07-27T13:48:23.116Z,31.70
2018-07-27T13:50:51.312Z,31.40
2018-07-27T13:53:19.740Z,31.30
2018-07-27T13:55:47.902Z,31.30
2018-07-27T13:58:16.052Z,31.40
2018-07-27T14:00:44.697Z,31.30
2018-07-27T14:03:13.124Z,31.60
2018-07-27T14:05:41.306Z,31.50
2018-07-27T14:08:09.481Z,31.50
2018-07-27T14:10:37.640Z,31.80
2018-07-27T14:13:05.816Z,31.80
2018-07-27T14:15:33.981Z,31.90
2018-07-27T14:18:05.200Z,31.90
2018-07-27T14:20:33.372Z,31.80
2018-07-27T14:23:01.555Z,31.70
2018-07-27T14:25:29.731Z,31.40
2018-07-27T14:27:58.101Z,31.30
2018-07-27T14:30:26.337Z,31.30
2018-07-27T14:32:54.492Z,30.90
2018-07-27T14:35:22.651Z,29.80
2018-07-27T14:37:50.813Z,29.40
2018-07-27T14:40:18.993Z,29.50
2018-07-27T14:42:47.188Z,29.70
2018-07-27T14:45:15.416Z,29.40
2018-07-27T14:47:43.549Z,29.30
2018-07-27T14:50:11.701Z,29.40
2018-07-27T14:52:40.050Z,29.60
2018-07-27T14:55:08.084Z,29.90
2018-07-27T14:57:36.248Z,30.00
2018-07-27T15:00:04.709Z,30.00
2018-07-27T15:02:32.877Z,30.10
2018-07-27T15:05:01.070Z,30.00
2018-07-27T15:07:29.220Z,30.00
2018-07-27T15:09:57.401Z,30.00
2018-07-27T15:12:25.576Z,30.00
2018-07-27T15:14:53.756Z,29.80
2018-07-27T15:17:21.936Z,29.40
2018-07-27T15:19:50.129Z,29.50
2018-07-27T15:22:18.284Z,29.70
2018-07-27T15:24:46.460Z,29.70
2018-07-27T15:29:42.591Z,30.00
2018-07-27T15:32:10.740Z,30.00
2018-07-27T15:34:38.910Z,30.00
2018-07-27T15:37:07.144Z,30.10
2018-07-27T15:39:35.330Z,30.30
2018-07-27T15:42:03.479Z,30.50
2018-07-27T15:44:31.681Z,30.60
2018-07-27T15:46:59.828Z,30.60
2018-07-27T15:49:27.997Z,30.70
2018-07-27T15:51:56.164Z,30.80
2018-07-27T15:56:52.268Z,30.80
2018-07-27T15:59:20.435Z,30.80
2018-07-27T16:01:48.616Z,30.90
2018-07-27T16:04:16.844Z,31.00
2018-07-27T16:06:45.018Z,30.90
2018-07-27T16:09:13.180Z,30.80
2018-07-27T16:11:41.359Z,31.00
2018-07-27T16:14:09.564Z,31.20
2018-07-27T16:16:37.721Z,31.40
2018-07-27T16:19:05.884Z,31.50
2018-07-27T16:21:34.045Z,31.70
2018-07-27T16:24:02.208Z,31.90
2018-07-27T16:26:30.388Z,32.10
2018-07-27T16:28:58.562Z,32.30
2018-07-27T16:31:26.739Z,32.60
2018-07-27T16:33:54.933Z,32.90
2018-07-27T16:36:23.300Z,33.30
2018-07-27T16:41:19.421Z,33.90
2018-07-27T16:43:47.588Z,34.10
2018-07-27T16:46:15.751Z,34.20
2018-07-27T16:48:44.008Z,34.30
2018-07-27T16:51:12.124Z,34.40
2018-07-27T16:53:40.288Z,34.50
2018-07-27T16:56:08.460Z,34.60
2018-07-27T16:58:36.620Z,34.70
2018-07-27T17:01:04.873Z,34.70
2018-07-27T17:03:33.307Z,35.00
2018-07-27T17:06:01.525Z,35.20
2018-07-27T17:08:29.868Z,35.40
2018-07-27T17:10:58.053Z,35.60
2018-07-27T17:13:26.275Z,35.70
2018-07-27T17:15:54.414Z,35.80
2018-07-27T17:18:22.578Z,36.00
2018-07-27T17:20:50.756Z,36.20
2018-07-27T17:23:18.937Z,36.20
2018-07-27T17:25:47.191Z,36.10
2018-07-27T17:28:15.280Z,36.20
2018-07-27T17:30:43.449Z,36.40
2018-07-27T17:33:11.617Z,36.40
2018-07-27T17:35:39.812Z,36.50
2018-07-27T17:38:08.000Z,36.60
2018-07-27T17:40:36.164Z,36.70
2018-07-27T17:43:04.423Z,36.70
2018-07-27T17:45:32.584Z,36.70
2018-07-27T17:48:00.774Z,36.70
2018-07-27T17:50:28.958Z,36.60
2018-07-27T17:52:58.333Z,36.60
2018-07-27T17:55:26.509Z,36.60
2018-07-27T17:57:55.404Z,36.60
2018-07-27T18:00:23.677Z,36.50
2018-07-27T18:02:51.879Z,36.60
2018-07-27T18:05:20.233Z,36.60
2018-07-27T18:07:48.506Z,36.60
2018-07-27T18:10:16.598Z,36.70
2018-07-27T18:12:44.776Z,36.80
2018-07-27T18:15:12.976Z,36.80
2018-07-27T18:17:41.132Z,37.00
2018-07-27T18:20:10.937Z,37.10
2018-07-27T18:22:39.289Z,37.10
2018-07-27T18:27:40.301Z,37.40
2018-07-27T18:30:08.917Z,37.40
2018-07-27T18:32:37.199Z,37.50
2018-07-27T18:35:05.717Z,37.60
2018-07-27T18:37:33.868Z,37.70
2018-07-27T18:40:02.049Z,37.80
2018-07-27T18:42:30.200Z,37.80
2018-07-27T18:44:58.390Z,37.90
2018-07-27T18:47:26.565Z,38.10
2018-07-27T18:49:54.749Z,38.20
2018-07-27T18:52:22.959Z,38.30
2018-07-27T18:54:51.124Z,38.40
2018-07-27T18:57:19.310Z,38.50
2018-07-27T18:59:47.460Z,38.60
2018-07-27T19:02:15.641Z,38.70
2018-07-27T19:04:43.794Z,38.70
2018-07-27T19:07:11.974Z,38.90
2018-07-27T19:09:40.177Z,39.40
2018-07-27T19:12:08.404Z,39.00
2018-07-27T19:14:36.564Z,39.20
2018-07-27T19:17:04.846Z,39.20
2018-07-27T19:22:00.964Z,39.50
2018-07-27T19:24:29.140Z,39.60
2018-07-27T19:29:25.457Z,39.80
2018-07-27T19:31:53.699Z,40.00
2018-07-27T19:34:21.845Z,40.00
2018-07-27T19:36:50.081Z,40.10
2018-07-27T19:39:18.188Z,40.30
2018-07-27T19:41:46.379Z,40.30
2018-07-27T19:44:14.570Z,40.40
2018-07-27T19:46:42.697Z,40.50
2018-07-27T19:49:11.194Z,40.50
2018-07-27T19:51:39.333Z,40.50
2018-07-27T19:54:07.525Z,40.60
2018-07-27T19:56:35.720Z,40.50
2018-07-27T19:59:03.896Z,40.60
2018-07-27T20:01:32.052Z,40.70
2018-07-27T20:04:00.214Z,40.80
2018-07-27T20:06:28.440Z,40.90
2018-07-27T20:08:57.280Z,41.00
2018-07-27T20:11:25.490Z,41.10
2018-07-27T20:16:21.608Z,41.20
2018-07-27T20:18:49.819Z,41.20
2018-07-27T20:21:18.004Z,41.50
2018-07-27T20:23:46.160Z,41.90
2018-07-27T20:26:14.320Z,42.20
2018-07-27T20:28:42.476Z,42.50
2018-07-27T20:31:10.660Z,42.80
2018-07-27T20:33:38.814Z,43.10
2018-07-27T20:36:07.001Z,43.30
2018-07-27T20:38:35.145Z,43.60
2018-07-27T20:41:03.328Z,43.90
2018-07-27T20:43:31.507Z,44.10
2018-07-27T20:45:59.697Z,44.20
2018-07-27T20:48:27.884Z,44.50
2018-07-27T20:50:56.022Z,44.60
2018-07-27T20:53:24.192Z,44.60
2018-07-27T20:55:52.382Z,44.80
2018-07-27T20:58:20.569Z,44.90
2018-07-27T21:00:48.737Z,45.20
2018-07-27T21:03:16.916Z,45.30
2018-07-27T21:05:45.094Z,45.50
2018-07-27T21:08:13.290Z,45.70
2018-07-27T21:10:41.671Z,45.80
2018-07-27T21:13:09.841Z,46.00
2018-07-27T21:15:38.002Z,46.00
2018-07-27T21:18:06.196Z,46.20
2018-07-27T21:20:34.368Z,46.20
2018-07-27T21:23:02.554Z,46.30
2018-07-27T21:25:30.736Z,46.50
2018-07-27T21:27:58.892Z,46.60
2018-07-27T21:30:27.070Z,46.60
2018-07-27T21:32:55.236Z,46.60
2018-07-27T21:35:23.458Z,46.70
2018-07-27T21:37:51.568Z,46.70
2018-07-27T21:40:19.735Z,46.90
2018-07-27T21:42:47.929Z,47.10
2018-07-27T21:45:16.093Z,47.20
2018-07-27T21:47:44.272Z,47.50
2018-07-27T21:50:12.440Z,47.80
2018-07-27T21:52:40.668Z,48.00
2018-07-27T21:55:08.824Z,48.20
2018-07-27T21:57:37.180Z,48.30
2018-07-27T22:00:08.006Z,48.50
2018-07-27T22:02:36.169Z,48.60
2018-07-27T22:05:05.014Z,48.70
2018-07-27T22:07:33.176Z,48.70
2018-07-27T22:10:01.389Z,48.70
2018-07-27T22:12:29.572Z,48.80
2018-07-27T22:14:57.732Z,48.70
2018-07-27T22:17:25.900Z,48.70
2018-07-27T22:19:54.088Z,49.00
2018-07-27T22:22:22.288Z,49.10
2018-07-27T22:24:50.903Z,49.20
2018-07-27T22:27:19.069Z,49.30
2018-07-27T22:29:47.252Z,49.30
2018-07-27T22:32:15.476Z,50.00
2018-07-27T22:34:43.600Z,49.50
2018-07-27T22:37:11.764Z,49.60
2018-07-27T22:39:39.924Z,49.70
2018-07-27T22:42:08.100Z,50.40
2018-07-27T22:44:36.269Z,50.00
2018-07-27T22:47:04.433Z,50.20
2018-07-27T22:52:00.539Z,50.40
2018-07-27T22:54:28.710Z,50.40
2018-07-27T22:56:56.881Z,50.50
2018-07-27T22:59:25.045Z,50.50
2018-07-27T23:01:53.204Z,50.50
2018-07-27T23:04:21.581Z,50.60
2018-07-27T23:06:49.760Z,50.80
2018-07-27T23:09:17.971Z,51.00
2018-07-27T23:11:46.120Z,50.90
2018-07-27T23:14:14.301Z,51.00
2018-07-27T23:16:42.466Z,51.20
2018-07-27T23:19:10.668Z,51.20
2018-07-27T23:21:38.865Z,51.30
2018-07-27T23:24:07.038Z,51.30
2018-07-27T23:26:35.222Z,51.30
2018-07-27T23:29:03.388Z,51.50
2018-07-27T23:31:31.585Z,51.50
2018-07-27T23:33:59.761Z,51.50
2018-07-27T23:36:27.918Z,51.60
2018-07-27T23:38:56.092Z,51.50
2018-07-27T23:41:24.257Z,51.70
2018-07-27T23:43:52.474Z,51.90
2018-07-27T23:46:20.624Z,52.00
2018-07-27T23:48:48.805Z,52.20
2018-07-27T23:51:16.972Z,52.50
2018-07-27T23:53:45.135Z,52.50
2018-07-27T23:56:13.605Z,52.70
2018-07-27T23:58:41.773Z,52.80
